Time,TemperatureF,DewpointF,PressureIn,WindDirection,WindDirectionDegrees,WindSpeedMPH,WindSpeedGustMPH,Humidity,HourlyPrecipIn,Conditions,Clouds,dailyrainin,SolarRadiationWatts/m^2,SoftwareType,DateUTC
2013-08-14 00:04:00,76.8,70.2,29.96,East,97,2.3,2.3,80,0.00,,,0.00,0.0,WeatherDisplay:10.37,2013-08-13 22:04:00,
2013-08-14 00:09:00,76.6,70.0,29.96,WSW,257,0.0,0.0,80,0.00,,,0.00,0.0,WeatherDisplay:10.37,2013-08-13 22:09:00,
2013-08-14 00:14:00,76.6,70.0,29.96,SW,233,1.2,1.2,80,0.00,,,0.00,0.0,WeatherDisplay:10.37,2013-08-13 22:14:00,
2013-08-14 00:19:00,76.6,70.0,29.96,SW,232,1.2,1.2,80,0.00,,,0.00,0.0,WeatherDisplay:10.37,2013-08-13 22:19:00,
2013-08-14 00:24:00,76.6,70.0,29.96,NW,311,2.3,2.3,80,0.00,,,0.00,0.0,WeatherDisplay:10.37,2013-08-13 22:24:00,
2013-08-14 00:29:00,76.5,69.9,29.96,ENE,57,1.2,1.2,80,0.00,,,0.00,0.0,WeatherDisplay:10.37,2013-08-13 22:29:00,
2013-08-14 00:34:00,76.4,69.8,29.95,ENE,63,2.3,2.3,80,0.00,,,0.00,0.0,WeatherDisplay:10.37,2013-08-13 22:34:00,
2013-08-14 00:39:00,76.2,69.6,29.95,NNE,32,2.0,2.0,80,0.00,,,0.00,0.0,WeatherDisplay:10.37,2013-08-13 22:39:00,
2013-08-14 00:44:00,76.2,69.6,29.95,NW,314,2.3,2.3,80,0.00,,,0.00,0.0,WeatherDisplay:10.37,2013-08-13 22:44:00,
2013-08-14 00:49:00,76.1,69.5,29.95,SE,142,2.3,2.3,80,0.00,,,0.00,0.0,WeatherDisplay:10.37,2013-08-13 22:49:00,
2013-08-14 00:54:00,76.1,69.5,29.95,NE,39,3.5,3.5,80,0.00,,,0.00,0.0,WeatherDisplay:10.37,2013-08-13 22:54:00,
2013-08-14 00:59:00,76.0,69.4,29.95,ENE,67,2.3,2.3,80,0.00,,,0.00,0.0,WeatherDisplay:10.37,2013-08-13 22:59:00,
2013-08-14 01:04:00,76.1,69.5,29.95,SE,124,2.3,2.3,80,0.00,,,0.00,0.0,WeatherDisplay:10.37,2013-08-13 23:04:00,
2013-08-14 01:09:00,76.1,69.5,29.95,NE,39,0.0,1.0,80,0.00,,,0.00,0.0,WeatherDisplay:10.37,2013-08-13 23:09:00,
2013-08-14 01:14:00,76.2,69.6,29.95,ENE,70,1.2,0.0,80,0.00,,,0.00,0.0,WeatherDisplay:10.37,2013-08-13 23:14:00,
2013-08-14 01:19:00,76.2,69.6,29.95,ENE,70,0.0,0.0,80,0.00,,,0.00,0.0,WeatherDisplay:10.37,2013-08-13 23:19:00,
2013-08-14 01:24:00,76.2,69.6,29.95,North,360,3.5,3.5,80,0.00,,,0.00,0.0,WeatherDisplay:10.37,2013-08-13 23:24:00,
2013-08-14 01:29:00,76.1,69.5,29.95,NNW,347,2.3,2.3,80,0.00,,,0.00,0.0,WeatherDisplay:10.37,2013-08-13 23:29:00,
2013-08-14 01:34:00,76.1,69.5,29.95,North,355,3.5,3.5,80,0.00,,,0.00,0.0,WeatherDisplay:10.37,2013-08-13 23:34:00,
2013-08-14 01:39:00,76.1,69.5,29.94,NNE,18,0.0,2.0,80,0.00,,,0.00,0.0,WeatherDisplay:10.37,2013-08-13 23:39:00,
2013-08-14 01:44:00,76.1,69.1,29.94,North,355,1.2,1.2,79,0.00,,,0.00,0.0,WeatherDisplay:10.37,2013-08-13 23:44:00,
2013-08-14 01:49:00,76.1,69.1,29.94,North,354,0.0,2.0,79,0.00,,,0.00,0.0,WeatherDisplay:10.37,2013-08-13 23:49:00,
2013-08-14 01:54:00,76.0,69.0,29.94,North,1,0.0,2.0,79,0.00,,,0.00,0.0,WeatherDisplay:10.37,2013-08-13 23:54:00,
2013-08-14 01:59:00,76.0,69.0,29.94,North,360,0.0,0.0,79,0.00,,,0.00,0.0,WeatherDisplay:10.37,2013-08-13 23:59:00,
2013-08-14 02:04:00,76.0,69.0,29.94,North,360,0.0,0.0,79,0.00,,,0.00,0.0,WeatherDisplay:10.37,2013-08-14 00:04:00,
2013-08-14 02:09:00,75.9,68.9,29.94,North,360,0.0,0.0,79,0.00,,,0.00,0.0,WeatherDisplay:10.37,2013-08-14 00:09:00,
2013-08-14 02:14:00,76.0,69.0,29.94,SW,233,0.0,0.0,79,0.00,,,0.00,0.0,WeatherDisplay:10.37,2013-08-14 00:14:00,
2013-08-14 02:19:00,76.1,69.1,29.93,WSW,251,0.0,1.0,79,0.00,,,0.00,0.0,WeatherDisplay:10.37,2013-08-14 00:19:00,
2013-08-14 02:24:00,76.2,69.2,29.93,SW,233,0.0,0.0,79,0.00,,,0.00,0.0,WeatherDisplay:10.37,2013-08-14 00:24:00,
2013-08-14 02:29:00,76.2,69.2,29.94,SW,233,0.0,0.0,79,0.00,,,0.00,0.0,WeatherDisplay:10.37,2013-08-14 00:29:00,
2013-08-14 02:34:00,76.0,68.6,29.94,SW,233,0.0,0.0,78,0.00,,,0.00,0.0,WeatherDisplay:10.37,2013-08-14 00:34:00,
2013-08-14 02:39:00,75.6,68.3,29.94,SSW,212,0.0,0.0,78,0.00,,,0.00,0.0,WeatherDisplay:10.37,2013-08-14 00:39:00,
2013-08-14 02:44:00,75.3,68.3,29.94,NW,325,1.2,1.2,79,0.00,,,0.00,0.0,WeatherDisplay:10.37,2013-08-14 00:44:00,
2013-08-14 02:49:00,75.1,68.1,29.94,NE,49,2.3,2.3,79,0.00,,,0.00,0.0,WeatherDisplay:10.37,2013-08-14 00:49:00,
2013-08-14 02:54:00,75.0,68.4,29.94,North,351,1.2,0.0,80,0.00,,,0.00,0.0,WeatherDisplay:10.37,2013-08-14 00:54:00,
2013-08-14 02:59:00,75.0,68.4,29.94,North,1,0.0,1.0,80,0.00,,,0.00,0.0,WeatherDisplay:10.37,2013-08-14 00:59:00,
2013-08-14 03:04:00,74.9,68.3,29.94,NNE,22,0.0,0.0,80,0.00,,,0.00,0.0,WeatherDisplay:10.37,2013-08-14 01:04:00,
2013-08-14 03:09:00,74.9,68.3,29.94,NNE,22,0.0,0.0,80,0.00,,,0.00,0.0,WeatherDisplay:10.37,2013-08-14 01:09:00,
2013-08-14 03:14:00,74.9,68.3,29.94,NNE,22,0.0,0.0,80,0.00,,,0.00,0.0,WeatherDisplay:10.37,2013-08-14 01:14:00,
2013-08-14 03:19:00,74.9,68.3,29.94,NNE,22,0.0,0.0,80,0.00,,,0.00,0.0,WeatherDisplay:10.37,2013-08-14 01:19:00,
2013-08-14 03:24:00,74.9,68.3,29.94,NNE,22,1.2,0.0,80,0.00,,,0.00,0.0,WeatherDisplay:10.37,2013-08-14 01:24:00,
2013-08-14 03:29:00,74.8,68.2,29.93,NNE,12,2.3,2.3,80,0.00,,,0.00,0.0,WeatherDisplay:10.37,2013-08-14 01:29:00,
2013-08-14 03:34:00,74.7,67.8,29.93,NE,36,3.5,3.5,79,0.00,,,0.00,0.0,WeatherDisplay:10.37,2013-08-14 01:34:00,
2013-08-14 03:39:00,74.7,67.8,29.94,NNE,20,2.3,2.3,79,0.00,,,0.00,0.0,WeatherDisplay:10.37,2013-08-14 01:39:00,
2013-08-14 03:45:00,74.8,67.8,29.93,North,5,1.2,1.2,79,0.00,,,0.00,0.0,WeatherDisplay:10.37,2013-08-14 01:45:00,
2013-08-14 03:50:00,75.0,68.0,29.93,North,350,1.2,1.2,79,0.00,,,0.00,0.0,WeatherDisplay:10.37,2013-08-14 01:50:00,
2013-08-14 03:55:00,75.0,68.0,29.93,ESE,106,3.5,3.5,79,0.00,,,0.00,0.0,WeatherDisplay:10.37,2013-08-14 01:55:00,
2013-08-14 04:00:00,74.9,67.9,29.93,WSW,246,3.5,3.5,79,0.00,,,0.00,0.0,WeatherDisplay:10.37,2013-08-14 02:00:00,
2013-08-14 04:05:00,74.9,68.3,29.93,NNE,15,1.2,1.2,80,0.00,,,0.00,0.0,WeatherDisplay:10.37,2013-08-14 02:05:00,
2013-08-14 04:10:00,74.8,68.2,29.93,WSW,238,1.2,0.0,80,0.00,,,0.00,0.0,WeatherDisplay:10.37,2013-08-14 02:10:00,
2013-08-14 04:15:00,74.5,67.9,29.93,ENE,59,1.2,1.2,80,0.00,,,0.00,0.0,WeatherDisplay:10.37,2013-08-14 02:15:00,
2013-08-14 04:20:00,74.4,67.8,29.93,West,279,1.2,1.2,80,0.00,,,0.00,0.0,WeatherDisplay:10.37,2013-08-14 02:20:00,
2013-08-14 04:25:00,74.2,68.0,29.93,NNE,29,2.3,2.3,81,0.00,,,0.00,0.0,WeatherDisplay:10.37,2013-08-14 02:25:00,
2013-08-14 04:30:00,74.0,67.8,29.93,NW,323,2.3,2.3,81,0.00,,,0.00,0.0,WeatherDisplay:10.37,2013-08-14 02:30:00,
2013-08-14 04:35:00,74.0,67.8,29.93,NNW,340,2.3,2.3,81,0.00,,,0.00,0.0,WeatherDisplay:10.37,2013-08-14 02:35:00,
2013-08-14 04:40:00,74.0,68.2,29.93,WSW,249,2.3,2.3,82,0.00,,,0.00,0.0,WeatherDisplay:10.37,2013-08-14 02:40:00,
2013-08-14 04:45:00,73.9,68.1,29.93,ESE,119,2.3,2.3,82,0.00,,,0.00,0.0,WeatherDisplay:10.37,2013-08-14 02:45:00,
2013-08-14 04:50:00,73.8,68.0,29.93,WSW,244,3.5,3.5,82,0.00,,,0.00,0.0,WeatherDisplay:10.37,2013-08-14 02:50:00,
2013-08-14 04:55:00,73.8,68.0,29.93,South,185,1.2,1.2,82,0.00,,,0.00,0.0,WeatherDisplay:10.37,2013-08-14 02:55:00,
2013-08-14 05:00:00,73.9,68.1,29.93,NNE,19,2.3,2.3,82,0.00,,,0.00,0.0,WeatherDisplay:10.37,2013-08-14 03:00:00,
2013-08-14 05:05:00,73.9,68.1,29.92,NW,309,3.5,3.5,82,0.00,,,0.00,0.0,WeatherDisplay:10.37,2013-08-14 03:05:00,
2013-08-14 05:10:00,74.0,68.2,29.93,NNE,33,2.3,2.3,82,0.00,,,0.00,0.0,WeatherDisplay:10.37,2013-08-14 03:10:00,
2013-08-14 05:15:00,74.0,68.2,29.93,ESE,112,1.2,1.2,82,0.00,,,0.00,0.0,WeatherDisplay:10.37,2013-08-14 03:15:00,
2013-08-14 05:20:00,74.0,68.2,29.93,WSW,249,2.3,2.3,82,0.00,,,0.00,0.0,WeatherDisplay:10.37,2013-08-14 03:20:00,
2013-08-14 05:25:00,74.1,68.3,29.92,WSW,248,2.3,2.3,82,0.00,,,0.00,0.0,WeatherDisplay:10.37,2013-08-14 03:25:00,
2013-08-14 05:30:00,74.1,67.9,29.93,SSW,211,2.3,2.3,81,0.00,,,0.00,0.0,WeatherDisplay:10.37,2013-08-14 03:30:00,
2013-08-14 05:35:00,74.0,67.8,29.93,West,259,2.3,2.3,81,0.00,,,0.00,0.0,WeatherDisplay:10.37,2013-08-14 03:35:00,
2013-08-14 05:40:00,73.8,67.6,29.92,SW,217,2.3,2.3,81,0.00,,,0.00,0.0,WeatherDisplay:10.37,2013-08-14 03:40:00,
2013-08-14 05:45:00,73.7,67.9,29.92,SSW,194,3.5,3.5,82,0.00,,,0.00,0.0,WeatherDisplay:10.37,2013-08-14 03:45:00,
2013-08-14 05:50:00,73.5,67.7,29.93,SSW,200,3.5,3.5,82,0.00,,,0.00,0.0,WeatherDisplay:10.37,2013-08-14 03:50:00,
2013-08-14 05:55:00,73.3,67.5,29.92,WNW,294,2.3,2.3,82,0.00,,,0.00,0.0,WeatherDisplay:10.37,2013-08-14 03:55:00,
2013-08-14 06:00:00,73.2,67.7,29.92,SW,234,2.3,2.3,83,0.00,,,0.00,0.0,WeatherDisplay:10.37,2013-08-14 04:00:00,
2013-08-14 06:01:00,73.1,67.6,29.92,SW,220,2.3,2.3,83,0.00,,,0.00,0.0,WeatherDisplay:10.37,2013-08-14 04:01:00,
2013-08-14 06:06:00,73.0,67.9,29.92,SSW,210,3.5,3.5,84,0.00,,,0.00,0.0,WeatherDisplay:10.37,2013-08-14 04:06:00,
2013-08-14 06:11:00,73.0,67.9,29.92,WSW,244,3.5,3.5,84,0.00,,,0.00,0.0,WeatherDisplay:10.37,2013-08-14 04:11:00,
2013-08-14 06:16:00,73.0,67.9,29.92,WSW,250,2.3,2.3,84,0.00,,,0.00,0.0,WeatherDisplay:10.37,2013-08-14 04:16:00,
2013-08-14 06:21:00,72.9,67.8,29.92,WSW,244,3.5,3.5,84,0.00,BKN,,0.00,7.0,WeatherDisplay:10.37,2013-08-14 04:21:00,
2013-08-14 06:26:00,72.9,68.1,29.92,South,190,1.2,1.2,85,0.00,BKN,,0.00,11.0,WeatherDisplay:10.37,2013-08-14 04:26:00,
2013-08-14 06:31:00,73.0,68.2,29.92,SSW,200,3.5,3.5,85,0.00,BKN,,0.00,16.0,WeatherDisplay:10.37,2013-08-14 04:31:00,
2013-08-14 06:36:00,73.0,68.2,29.92,SSW,202,1.2,1.2,85,0.00,BKN,,0.00,23.0,WeatherDisplay:10.37,2013-08-14 04:36:00,
2013-08-14 06:41:00,73.1,68.3,29.92,SSW,193,2.3,2.3,85,0.00,BKN,,0.00,30.0,WeatherDisplay:10.37,2013-08-14 04:41:00,
2013-08-14 06:46:00,73.2,68.4,29.92,NE,53,3.5,3.5,85,0.00,BKN,,0.00,39.0,WeatherDisplay:10.37,2013-08-14 04:46:00,
2013-08-14 07:08:00,73.7,68.6,29.92,ENE,77,1.0,1.0,84,0.00,SCT,,0.00,90.0,WeatherDisplay:10.37,2013-08-14 05:08:00,
2013-08-14 07:13:00,73.9,68.8,29.92,NNW,343,1.2,1.2,84,0.00,SCT,,0.00,105.0,WeatherDisplay:10.37,2013-08-14 05:13:00,
2013-08-14 07:18:00,74.1,69.0,29.92,SE,145,1.2,1.2,84,0.00,SCT,,0.00,123.0,WeatherDisplay:10.37,2013-08-14 05:18:00,
2013-08-14 07:24:00,74.3,68.8,29.92,North,360,3.5,3.5,83,0.00,FEW,,0.00,141.0,WeatherDisplay:10.37,2013-08-14 05:24:00,
2013-08-14 07:29:00,74.5,69.0,29.92,West,267,1.2,1.2,83,0.00,FEW,,0.00,156.0,WeatherDisplay:10.37,2013-08-14 05:29:00,
2013-08-14 07:34:00,74.7,69.2,29.92,SW,223,1.2,1.2,83,0.00,FEW,,0.00,169.0,WeatherDisplay:10.37,2013-08-14 05:34:00,
2013-08-14 07:39:00,75.1,69.2,29.92,East,85,2.3,2.3,82,0.00,FEW,,0.00,183.0,WeatherDisplay:10.37,2013-08-14 05:39:00,
2013-08-14 07:44:00,75.3,69.4,29.92,SW,219,1.2,0.0,82,0.00,FEW,,0.00,197.0,WeatherDisplay:10.37,2013-08-14 05:44:00,
2013-08-14 07:49:00,75.6,69.7,29.93,WSW,242,1.2,1.3,82,0.00,FEW,,0.00,211.0,WeatherDisplay:10.37,2013-08-14 05:49:00,
2013-08-14 07:54:00,75.9,69.6,29.93,West,275,1.2,1.2,81,0.00,CLR,,0.00,227.0,WeatherDisplay:10.37,2013-08-14 05:54:00,
2013-08-14 07:59:00,76.1,69.8,29.93,NE,42,2.3,2.3,81,0.00,CLR,,0.00,244.0,WeatherDisplay:10.37,2013-08-14 05:59:00,
2013-08-14 08:04:00,76.4,69.8,29.93,SSW,196,1.2,1.2,80,0.00,CLR,,0.00,250.0,WeatherDisplay:10.37,2013-08-14 06:04:00,
2013-08-14 08:09:00,76.7,70.1,29.93,SE,127,2.3,2.3,80,0.00,CLR,,0.00,269.0,WeatherDisplay:10.37,2013-08-14 06:09:00,
2013-08-14 08:14:00,76.9,69.9,29.93,East,82,2.3,2.3,79,0.00,FEW,,0.00,278.0,WeatherDisplay:10.37,2013-08-14 06:14:00,
2013-08-14 08:19:00,77.1,70.1,29.93,NNE,17,1.2,1.2,79,0.00,FEW,,0.00,299.0,WeatherDisplay:10.37,2013-08-14 06:19:00,
2013-08-14 08:24:00,77.3,69.9,29.93,East,89,5.0,5.0,78,0.00,FEW,,0.00,315.0,WeatherDisplay:10.37,2013-08-14 06:24:00,
2013-08-14 08:29:00,77.4,70.0,29.93,SW,233,1.2,1.2,78,0.00,FEW,,0.00,332.0,WeatherDisplay:10.37,2013-08-14 06:29:00,
2013-08-14 08:34:00,77.6,70.2,29.93,SW,232,1.2,1.2,78,0.00,FEW,,0.00,341.0,WeatherDisplay:10.37,2013-08-14 06:34:00,
2013-08-14 08:39:00,78.0,70.6,29.93,West,269,1.2,1.2,78,0.00,FEW,,0.00,346.0,WeatherDisplay:10.37,2013-08-14 06:39:00,
2013-08-14 08:44:00,78.5,70.7,29.93,ENE,78,1.2,1.2,77,0.00,FEW,,0.00,366.0,WeatherDisplay:10.37,2013-08-14 06:44:00,
2013-08-14 08:49:00,78.9,70.7,29.93,SE,130,2.3,2.3,76,0.00,FEW,,0.00,388.0,WeatherDisplay:10.37,2013-08-14 06:49:00,
2013-08-14 08:54:00,79.1,70.5,29.93,WNW,300,2.3,2.3,75,0.00,FEW,,0.00,399.0,WeatherDisplay:10.37,2013-08-14 06:54:00,
2013-08-14 08:59:00,79.4,70.8,29.93,WNW,300,0.0,0.0,75,0.00,FEW,,0.00,415.0,WeatherDisplay:10.37,2013-08-14 06:59:00,
2013-08-14 09:04:00,80.0,71.0,29.93,SSW,194,3.0,3.0,74,0.00,FEW,,0.00,443.0,WeatherDisplay:10.37,2013-08-14 07:04:00,
2013-08-14 09:09:00,79.6,70.6,29.93,WSW,239,3.5,3.5,74,0.00,FEW,,0.00,457.0,WeatherDisplay:10.37,2013-08-14 07:09:00,
2013-08-14 09:14:00,78.6,70.0,29.93,WSW,242,4.6,4.6,75,0.00,FEW,,0.00,475.0,WeatherDisplay:10.37,2013-08-14 07:14:00,
2013-08-14 09:19:00,78.2,70.4,29.93,WSW,240,3.5,3.5,77,0.00,FEW,,0.00,494.0,WeatherDisplay:10.37,2013-08-14 07:19:00,
2013-08-14 09:24:00,78.4,70.6,29.93,WSW,240,7.0,7.0,77,0.00,FEW,,0.00,506.0,WeatherDisplay:10.37,2013-08-14 07:24:00,
2013-08-14 09:29:00,78.2,70.4,29.93,SSW,207,6.0,6.0,77,0.00,FEW,,0.00,517.0,WeatherDisplay:10.37,2013-08-14 07:29:00,
2013-08-14 09:34:00,78.2,70.4,29.93,South,176,6.0,6.0,77,0.00,SCT,,0.00,531.0,WeatherDisplay:10.37,2013-08-14 07:34:00,
2013-08-14 09:39:00,78.2,70.8,29.93,SW,216,8.1,8.1,78,0.00,SCT,,0.00,545.0,WeatherDisplay:10.37,2013-08-14 07:39:00,
2013-08-14 09:44:00,78.3,70.9,29.93,SSW,207,8.1,8.1,78,0.00,SCT,,0.00,559.0,WeatherDisplay:10.37,2013-08-14 07:44:00,
2013-08-14 09:49:00,78.2,70.8,29.93,SW,215,9.2,9.2,78,0.00,SCT,,0.00,578.0,WeatherDisplay:10.37,2013-08-14 07:49:00,
2013-08-14 09:54:00,78.1,70.7,29.94,SW,224,8.1,8.1,78,0.00,SCT,,0.00,585.0,WeatherDisplay:10.37,2013-08-14 07:54:00,
2013-08-14 09:59:00,78.2,70.4,29.94,SSE,164,6.9,6.9,77,0.00,SCT,,0.00,608.0,WeatherDisplay:10.37,2013-08-14 07:59:00,
2013-08-14 10:04:00,78.6,70.8,29.94,SSW,211,10.4,10.4,77,0.00,SCT,,0.00,606.0,WeatherDisplay:10.37,2013-08-14 08:04:00,
2013-08-14 10:09:00,78.5,70.7,29.94,East,84,8.1,8.1,77,0.00,SCT,,0.00,557.0,WeatherDisplay:10.37,2013-08-14 08:09:00,
2013-08-14 10:14:00,78.9,70.7,29.94,WSW,246,9.2,9.2,76,0.00,SCT,,0.00,643.0,WeatherDisplay:10.37,2013-08-14 08:14:00,
2013-08-14 10:19:00,78.4,70.2,29.94,WSW,246,11.5,11.5,76,0.00,SCT,,0.00,635.0,WeatherDisplay:10.37,2013-08-14 08:19:00,
2013-08-14 10:24:00,78.4,70.2,29.94,WSW,246,8.1,8.1,76,0.00,SCT,,0.00,661.0,WeatherDisplay:10.37,2013-08-14 08:24:00,
2013-08-14 10:29:00,79.1,70.9,29.94,WSW,241,9.2,9.2,76,0.00,SCT,,0.00,663.0,WeatherDisplay:10.37,2013-08-14 08:29:00,
2013-08-14 10:34:00,79.5,70.5,29.94,SW,227,9.2,9.2,74,0.00,BKN,,0.00,670.0,WeatherDisplay:10.37,2013-08-14 08:34:00,
2013-08-14 10:39:00,79.8,70.8,29.94,SE,128,6.9,6.9,74,0.00,BKN,,0.00,675.0,WeatherDisplay:10.37,2013-08-14 08:39:00,
2013-08-14 10:44:00,79.8,71.2,29.94,SW,217,6.9,6.9,75,0.00,BKN,,0.00,691.0,WeatherDisplay:10.37,2013-08-14 08:44:00,
2013-08-14 10:49:00,79.8,70.4,29.94,NW,315,8.1,8.1,73,0.00,BKN,,0.00,693.0,WeatherDisplay:10.37,2013-08-14 08:49:00,
2013-08-14 10:54:00,79.9,70.1,29.94,WSW,251,9.0,9.0,72,0.00,BKN,,0.00,700.0,WeatherDisplay:10.37,2013-08-14 08:54:00,
2013-08-14 10:59:00,79.6,69.8,29.94,WSW,240,11.5,11.5,72,0.00,BKN,,0.00,701.0,WeatherDisplay:10.37,2013-08-14 08:59:00,
2013-08-14 11:04:00,79.9,70.5,29.94,WSW,254,11.5,11.5,73,0.00,BKN,,0.00,708.0,WeatherDisplay:10.37,2013-08-14 09:04:00,
2013-08-14 11:09:00,79.9,70.5,29.94,SW,236,8.0,8.0,73,0.00,BKN,,0.00,703.0,WeatherDisplay:10.37,2013-08-14 09:09:00,
2013-08-14 11:14:00,80.3,71.3,29.94,North,5,10.4,10.4,74,0.00,BKN,,0.00,707.0,WeatherDisplay:10.37,2013-08-14 09:14:00,
2013-08-14 11:19:00,80.7,71.6,29.94,WSW,239,9.2,9.2,74,0.00,BKN,,0.00,719.0,WeatherDisplay:10.37,2013-08-14 09:19:00,
2013-08-14 11:24:00,80.2,70.8,29.94,West,271,11.5,11.5,73,0.00,BKN,,0.00,728.0,WeatherDisplay:10.37,2013-08-14 09:24:00,
2013-08-14 11:29:00,79.8,71.2,29.94,SW,227,10.4,10.4,75,0.00,BKN,,0.00,770.0,WeatherDisplay:10.37,2013-08-14 09:29:00,
2013-08-14 11:34:00,79.9,71.7,29.94,NNE,23,6.9,6.9,76,0.00,BKN,,0.00,749.0,WeatherDisplay:10.37,2013-08-14 09:34:00,
2013-08-14 11:39:00,80.2,71.9,29.94,SSE,160,8.1,8.1,76,0.00,BKN,,0.00,536.0,WeatherDisplay:10.37,2013-08-14 09:39:00,
2013-08-14 11:44:00,80.3,71.3,29.94,WSW,242,10.4,10.4,74,0.00,BKN,,0.00,714.0,WeatherDisplay:10.37,2013-08-14 09:44:00,
2013-08-14 11:49:00,80.3,71.6,29.94,South,191,11.5,11.5,75,0.00,BKN,,0.00,712.0,WeatherDisplay:10.37,2013-08-14 09:49:00,
2013-08-14 11:54:00,80.1,71.1,29.94,WSW,258,11.5,11.5,74,0.00,BKN,,0.00,796.0,WeatherDisplay:10.37,2013-08-14 09:54:00,
2013-08-14 11:59:00,80.0,71.4,29.94,SW,218,11.5,11.5,75,0.00,BKN,,0.00,796.0,WeatherDisplay:10.37,2013-08-14 09:59:00,
2013-08-14 12:04:00,79.7,71.5,29.94,WSW,249,15.0,15.0,76,0.00,BKN,,0.00,707.0,WeatherDisplay:10.37,2013-08-14 10:04:00,
2013-08-14 12:09:00,79.6,71.4,29.94,South,178,11.5,11.5,76,0.00,BKN,,0.00,796.0,WeatherDisplay:10.37,2013-08-14 10:09:00,
2013-08-14 12:14:00,79.9,71.3,29.94,WSW,253,8.1,8.1,75,0.00,BKN,,0.00,816.0,WeatherDisplay:10.37,2013-08-14 10:14:00,
2013-08-14 12:19:00,80.5,71.0,29.94,WSW,254,11.5,11.5,73,0.00,BKN,,0.00,809.0,WeatherDisplay:10.37,2013-08-14 10:19:00,
2013-08-14 12:24:00,80.9,70.6,29.94,West,274,11.5,11.5,71,0.00,BKN,,0.00,805.0,WeatherDisplay:10.37,2013-08-14 10:24:00,
2013-08-14 12:29:00,81.0,71.5,29.94,SW,219,7.0,7.0,73,0.00,BKN,,0.00,831.0,WeatherDisplay:10.37,2013-08-14 10:29:00,
2013-08-14 12:35:00,80.8,70.1,29.93,SW,222,9.2,9.2,70,0.00,SCT,,0.00,819.0,WeatherDisplay:10.37,2013-08-14 10:35:00,
2013-08-14 12:40:00,81.3,71.4,29.93,NW,324,7.0,7.0,72,0.00,SCT,,0.00,744.0,WeatherDisplay:10.37,2013-08-14 10:40:00,
2013-08-14 12:45:00,80.8,70.1,29.94,West,259,15.0,15.0,70,0.00,SCT,,0.00,795.0,WeatherDisplay:10.37,2013-08-14 10:45:00,
2013-08-14 12:50:00,80.5,71.4,29.93,WSW,237,9.0,13.0,74,0.00,SCT,,0.00,696.0,WeatherDisplay:10.37,2013-08-14 10:50:00,
2013-08-14 12:55:00,80.9,71.4,29.93,SW,223,11.5,11.5,73,0.00,SCT,,0.00,675.0,WeatherDisplay:10.37,2013-08-14 10:55:00,
2013-08-14 13:00:00,80.1,71.1,29.94,WSW,252,16.1,16.1,74,0.00,SCT,,0.00,715.0,WeatherDisplay:10.37,2013-08-14 11:00:00,
2013-08-14 13:05:00,79.7,71.5,29.94,WSW,257,7.0,16.0,76,0.00,SCT,,0.00,793.0,WeatherDisplay:10.37,2013-08-14 11:05:00,
2013-08-14 13:10:00,80.3,71.6,29.93,WSW,237,10.0,20.0,75,0.00,SCT,,0.00,840.0,WeatherDisplay:10.37,2013-08-14 11:10:00,
2013-08-14 13:15:00,80.4,72.1,29.94,WSW,253,12.0,12.0,76,0.00,BKN,,0.00,831.0,WeatherDisplay:10.37,2013-08-14 11:15:00,
2013-08-14 13:20:00,80.3,72.0,29.94,SW,232,15.0,15.0,76,0.00,BKN,,0.00,849.0,WeatherDisplay:10.37,2013-08-14 11:20:00,
2013-08-14 13:25:00,80.6,71.9,29.94,West,263,12.7,12.7,75,0.00,BKN,,0.00,840.0,WeatherDisplay:10.37,2013-08-14 11:25:00,
2013-08-14 13:30:00,80.0,71.8,29.94,WSW,250,18.4,18.4,76,0.00,BKN,,0.00,823.0,WeatherDisplay:10.37,2013-08-14 11:30:00,
2013-08-14 13:35:00,80.1,72.2,29.94,WSW,250,18.4,18.4,77,0.00,BKN,,0.00,821.0,WeatherDisplay:10.37,2013-08-14 11:35:00,
2013-08-14 13:40:00,80.9,73.0,29.93,SW,215,16.1,16.1,77,0.00,BKN,,0.00,814.0,WeatherDisplay:10.37,2013-08-14 11:40:00,
2013-08-14 13:45:00,80.9,72.2,29.93,WSW,244,16.1,16.1,75,0.00,BKN,,0.00,812.0,WeatherDisplay:10.37,2013-08-14 11:45:00,
2013-08-14 13:50:00,80.5,71.8,29.93,WNW,296,11.5,11.5,75,0.00,BKN,,0.00,803.0,WeatherDisplay:10.37,2013-08-14 11:50:00,
2013-08-14 13:55:00,80.1,71.5,29.93,SSW,213,13.0,13.0,75,0.00,BKN,,0.00,805.0,WeatherDisplay:10.37,2013-08-14 11:55:00,
2013-08-14 14:00:00,80.1,72.2,29.93,WSW,239,15.0,15.0,77,0.00,BKN,,0.00,796.0,WeatherDisplay:10.37,2013-08-14 12:00:00,
2013-08-14 14:05:00,80.7,72.4,29.94,West,261,10.4,10.4,76,0.00,SCT,,0.00,798.0,WeatherDisplay:10.37,2013-08-14 12:05:00,
2013-08-14 14:10:00,80.9,72.2,29.93,South,183,16.1,16.1,75,0.00,SCT,,0.00,789.0,WeatherDisplay:10.37,2013-08-14 12:10:00,
2013-08-14 14:15:00,80.6,71.9,29.93,WSW,248,12.7,12.7,75,0.00,SCT,,0.00,784.0,WeatherDisplay:10.37,2013-08-14 12:15:00,
2013-08-14 14:20:00,81.4,72.7,29.93,NNE,26,17.3,17.3,75,0.00,SCT,,0.00,775.0,WeatherDisplay:10.37,2013-08-14 12:20:00,
2013-08-14 14:25:00,81.5,72.4,29.93,West,262,15.0,15.0,74,0.00,SCT,,0.00,775.0,WeatherDisplay:10.37,2013-08-14 12:25:00,
2013-08-14 14:30:00,81.0,71.9,29.93,West,261,16.1,16.1,74,0.00,SCT,,0.00,768.0,WeatherDisplay:10.37,2013-08-14 12:30:00,
2013-08-14 14:35:00,80.8,72.1,29.93,SW,221,13.8,13.8,75,0.00,SCT,,0.00,756.0,WeatherDisplay:10.37,2013-08-14 12:35:00,
2013-08-14 14:40:00,80.9,72.2,29.93,WSW,257,13.8,13.8,75,0.00,SCT,,0.00,754.0,WeatherDisplay:10.37,2013-08-14 12:40:00,
2013-08-14 14:45:00,80.4,71.3,29.93,WNW,296,15.0,15.0,74,0.00,SCT,,0.00,745.0,WeatherDisplay:10.37,2013-08-14 12:45:00,
2013-08-14 14:50:00,80.5,71.4,29.93,WSW,255,17.3,17.3,74,0.00,SCT,,0.00,744.0,WeatherDisplay:10.37,2013-08-14 12:50:00,
2013-08-14 14:55:00,80.6,71.9,29.92,West,277,20.0,20.0,75,0.00,SCT,,0.00,729.0,WeatherDisplay:10.37,2013-08-14 12:55:00,
2013-08-14 15:00:00,80.6,71.5,29.92,West,263,17.0,17.0,74,0.00,SCT,,0.00,722.0,WeatherDisplay:10.37,2013-08-14 13:00:00,
2013-08-14 15:05:00,80.8,71.3,29.92,SW,225,18.4,18.4,73,0.00,SCT,,0.00,712.0,WeatherDisplay:10.37,2013-08-14 13:05:00,
2013-08-14 15:10:00,80.7,70.4,29.92,West,269,16.1,16.1,71,0.00,SCT,,0.00,705.0,WeatherDisplay:10.37,2013-08-14 13:10:00,
2013-08-14 15:15:00,80.8,70.5,29.92,SSW,196,16.1,16.1,71,0.00,SCT,,0.00,701.0,WeatherDisplay:10.37,2013-08-14 13:15:00,
2013-08-14 15:20:00,81.1,70.8,29.92,WNW,284,17.3,17.3,71,0.00,SCT,,0.00,693.0,WeatherDisplay:10.37,2013-08-14 13:20:00,
2013-08-14 15:25:00,80.8,70.5,29.92,West,275,16.1,16.1,71,0.00,SCT,,0.00,675.0,WeatherDisplay:10.37,2013-08-14 13:25:00,
2013-08-14 15:30:00,80.9,71.4,29.92,NW,317,11.5,11.5,73,0.00,SCT,,0.00,673.0,WeatherDisplay:10.37,2013-08-14 13:30:00,
2013-08-14 15:35:00,81.1,71.6,29.92,WSW,254,13.8,13.8,73,0.00,SCT,,0.00,656.0,WeatherDisplay:10.37,2013-08-14 13:35:00,
2013-08-14 15:40:00,81.7,71.4,29.92,WSW,253,19.6,19.6,71,0.00,SCT,,0.00,650.0,WeatherDisplay:10.37,2013-08-14 13:40:00,
2013-08-14 15:45:00,81.6,71.3,29.92,WSW,254,16.1,16.1,71,0.00,SCT,,0.00,636.0,WeatherDisplay:10.37,2013-08-14 13:45:00,
2013-08-14 15:50:00,81.4,70.7,29.91,West,277,19.6,19.6,70,0.00,SCT,,0.00,628.0,WeatherDisplay:10.37,2013-08-14 13:50:00,
2013-08-14 15:55:00,81.3,71.0,29.91,WNW,302,17.3,17.3,71,0.00,SCT,,0.00,624.0,WeatherDisplay:10.37,2013-08-14 13:55:00,
2013-08-14 16:00:00,81.4,71.1,29.91,SSW,213,16.1,16.1,71,0.00,SCT,,0.00,612.0,WeatherDisplay:10.37,2013-08-14 14:00:00,
2013-08-14 16:05:00,81.0,70.7,29.91,West,261,19.0,19.0,71,0.00,SCT,,0.00,603.0,WeatherDisplay:10.37,2013-08-14 14:05:00,
2013-08-14 16:10:00,81.4,71.1,29.91,WSW,242,16.1,16.1,71,0.00,SCT,,0.00,573.0,WeatherDisplay:10.37,2013-08-14 14:10:00,
2013-08-14 16:15:00,81.6,70.4,29.91,West,267,17.3,17.3,69,0.00,SCT,,0.00,578.0,WeatherDisplay:10.37,2013-08-14 14:15:00,
2013-08-14 16:20:00,80.8,70.1,29.92,West,272,18.4,18.4,70,0.00,SCT,,0.00,563.0,WeatherDisplay:10.37,2013-08-14 14:20:00,
2013-08-14 16:25:00,80.3,70.0,29.91,WNW,297,16.1,16.1,71,0.00,SCT,,0.00,548.0,WeatherDisplay:10.37,2013-08-14 14:25:00,
2013-08-14 16:30:00,80.7,70.0,29.91,West,259,18.4,18.4,70,0.00,SCT,,0.00,541.0,WeatherDisplay:10.37,2013-08-14 14:30:00,
2013-08-14 16:35:00,81.1,70.4,29.91,West,273,17.3,17.3,70,0.00,SCT,,0.00,527.0,WeatherDisplay:10.37,2013-08-14 14:35:00,
2013-08-14 16:40:00,80.6,69.5,29.91,West,273,19.6,19.6,69,0.00,SCT,,0.00,515.0,WeatherDisplay:10.37,2013-08-14 14:40:00,
2013-08-14 16:45:00,80.5,68.1,29.91,SW,225,18.4,18.4,66,0.00,SCT,,0.00,501.0,WeatherDisplay:10.37,2013-08-14 14:45:00,
2013-08-14 16:50:00,80.8,68.8,29.91,WNW,286,17.3,17.3,67,0.00,SCT,,0.00,489.0,WeatherDisplay:10.37,2013-08-14 14:50:00,
2013-08-14 16:55:00,81.5,69.9,29.91,West,275,15.0,15.0,68,0.00,SCT,,0.00,482.0,WeatherDisplay:10.37,2013-08-14 14:55:00,
2013-08-14 17:00:00,81.4,68.9,29.91,ENE,65,13.8,13.8,66,0.00,SCT,,0.00,461.0,WeatherDisplay:10.37,2013-08-14 15:00:00,
2013-08-14 17:05:00,81.2,69.6,29.91,WSW,239,17.3,17.3,68,0.00,SCT,,0.00,454.0,WeatherDisplay:10.37,2013-08-14 15:05:00,
2013-08-14 17:10:00,81.2,70.1,29.91,WSW,256,11.0,11.0,69,0.00,SCT,,0.00,434.0,WeatherDisplay:10.37,2013-08-14 15:10:00,
2013-08-14 17:15:00,81.7,70.5,29.91,WNW,287,13.8,13.8,69,0.00,SCT,,0.00,425.0,WeatherDisplay:10.37,2013-08-14 15:15:00,
2013-08-14 17:20:00,81.9,70.7,29.91,West,267,13.0,13.0,69,0.00,SCT,,0.00,406.0,WeatherDisplay:10.37,2013-08-14 15:20:00,
2013-08-14 17:25:00,81.7,70.5,29.91,SW,236,12.7,12.7,69,0.00,SCT,,0.00,390.0,WeatherDisplay:10.37,2013-08-14 15:25:00,
2013-08-14 17:30:00,81.2,70.5,29.91,West,277,16.1,16.1,70,0.00,SCT,,0.00,374.0,WeatherDisplay:10.37,2013-08-14 15:30:00,
2013-08-14 17:35:00,81.2,68.8,29.90,WSW,248,15.0,15.0,66,0.00,SCT,,0.00,362.0,WeatherDisplay:10.37,2013-08-14 15:35:00,
2013-08-14 17:41:00,81.4,68.5,29.91,West,266,11.0,11.0,65,0.00,SCT,,0.00,353.0,WeatherDisplay:10.37,2013-08-14 15:41:00,
2013-08-14 17:46:00,81.2,69.6,29.91,SSE,167,11.5,11.5,68,0.00,SCT,,0.00,334.0,WeatherDisplay:10.37,2013-08-14 15:46:00,
2013-08-14 17:51:00,81.2,68.8,29.91,West,275,13.8,13.8,66,0.00,SCT,,0.00,309.0,WeatherDisplay:10.37,2013-08-14 15:51:00,
2013-08-14 17:56:00,81.3,69.7,29.91,East,100,11.5,11.5,68,0.00,SCT,,0.00,311.0,WeatherDisplay:10.37,2013-08-14 15:56:00,
2013-08-14 18:01:00,81.2,67.9,29.92,West,277,12.7,12.7,64,0.00,SCT,,0.00,297.0,WeatherDisplay:10.37,2013-08-14 16:01:00,
2013-08-14 18:18:00,80.7,67.4,29.92,WSW,251,11.5,11.5,64,0.00,SCT,,0.00,98.0,WeatherDisplay:10.37,2013-08-14 16:18:00,
2013-08-14 18:24:00,80.8,68.8,29.92,WNW,293,6.9,6.9,67,0.00,SCT,,0.00,148.0,WeatherDisplay:10.37,2013-08-14 16:24:00,
2013-08-14 18:29:00,80.9,68.9,29.92,West,269,10.4,10.4,67,0.00,SCT,,0.00,128.0,WeatherDisplay:10.37,2013-08-14 16:29:00,
2013-08-14 18:34:00,80.5,68.5,29.92,WNW,290,10.4,10.4,67,0.00,SCT,,0.00,104.0,WeatherDisplay:10.37,2013-08-14 16:34:00,
2013-08-14 18:39:00,80.7,68.7,29.92,West,272,6.9,6.9,67,0.00,SCT,,0.00,81.0,WeatherDisplay:10.37,2013-08-14 16:39:00,
2013-08-14 18:44:00,80.7,69.2,29.92,WSW,246,9.2,9.2,68,0.00,SCT,,0.00,81.0,WeatherDisplay:10.37,2013-08-14 16:44:00,
2013-08-14 18:49:00,80.5,68.5,29.92,West,264,8.1,8.1,67,0.00,SCT,,0.00,91.0,WeatherDisplay:10.37,2013-08-14 16:49:00,
2013-08-14 18:54:00,80.5,68.5,29.92,SE,134,9.2,9.2,67,0.00,SCT,,0.00,88.0,WeatherDisplay:10.37,2013-08-14 16:54:00,
2013-08-14 18:59:00,80.6,68.6,29.92,WSW,237,9.2,9.2,67,0.00,SCT,,0.00,67.0,WeatherDisplay:10.37,2013-08-14 16:59:00,
2013-08-14 19:05:00,80.8,68.4,29.92,WSW,246,9.2,9.2,66,0.00,SCT,,0.00,51.0,WeatherDisplay:10.37,2013-08-14 17:05:00,
2013-08-14 19:10:00,80.7,69.2,29.92,WSW,258,9.2,9.2,68,0.00,SCT,,0.00,76.0,WeatherDisplay:10.37,2013-08-14 17:10:00,
2013-08-14 19:15:00,80.6,69.1,29.92,WSW,255,8.0,12.0,68,0.00,SCT,,0.00,63.0,WeatherDisplay:10.37,2013-08-14 17:15:00,
2013-08-14 19:20:00,80.3,69.6,29.92,SW,215,9.2,9.2,70,0.00,SCT,,0.00,58.0,WeatherDisplay:10.37,2013-08-14 17:20:00,
2013-08-14 19:25:00,80.4,69.3,29.92,WSW,248,5.0,10.0,69,0.00,SCT,,0.00,51.0,WeatherDisplay:10.37,2013-08-14 17:25:00,
2013-08-14 19:30:00,80.5,69.4,29.92,West,273,8.1,8.1,69,0.00,SCT,,0.00,42.0,WeatherDisplay:10.37,2013-08-14 17:30:00,
2013-08-14 19:35:00,80.5,69.8,29.92,WSW,253,6.0,8.0,70,0.00,SCT,,0.00,32.0,WeatherDisplay:10.37,2013-08-14 17:35:00,
2013-08-14 19:40:00,80.5,69.4,29.92,SW,227,5.8,5.8,69,0.00,SCT,,0.00,21.0,WeatherDisplay:10.37,2013-08-14 17:40:00,
2013-08-14 19:45:00,80.6,69.9,29.92,SW,233,2.0,6.0,70,0.00,SCT,,0.00,14.0,WeatherDisplay:10.37,2013-08-14 17:45:00,
2013-08-14 19:50:00,80.5,70.2,29.92,SW,232,1.0,6.0,71,0.00,SCT,,0.00,11.0,WeatherDisplay:10.37,2013-08-14 17:50:00,
2013-08-14 19:55:00,80.5,70.2,29.92,SW,230,2.0,5.0,71,0.00,SCT,,0.00,5.0,WeatherDisplay:10.37,2013-08-14 17:55:00,
2013-08-14 20:00:00,80.5,70.2,29.92,SSW,192,3.5,3.5,71,0.00,SCT,,0.00,0.0,WeatherDisplay:10.37,2013-08-14 18:00:00,
2013-08-14 20:05:00,80.4,70.1,29.92,SSW,194,5.0,6.0,71,0.00,SCT,,0.00,0.0,WeatherDisplay:10.37,2013-08-14 18:05:00,
2013-08-14 20:10:00,80.3,69.6,29.93,SSW,212,6.9,6.9,70,0.00,SCT,,0.00,0.0,WeatherDisplay:10.37,2013-08-14 18:10:00,
2013-08-14 20:15:00,80.4,70.1,29.93,South,189,3.0,7.0,71,0.00,SCT,,0.00,0.0,WeatherDisplay:10.37,2013-08-14 18:15:00,
2013-08-14 20:20:00,80.2,70.8,29.93,SSE,165,5.0,8.0,73,0.00,SCT,,0.00,0.0,WeatherDisplay:10.37,2013-08-14 18:20:00,
2013-08-14 20:25:00,80.1,70.7,29.93,SSE,157,9.2,9.2,73,0.00,SCT,,0.00,0.0,WeatherDisplay:10.37,2013-08-14 18:25:00,
2013-08-14 20:30:00,79.8,70.8,29.93,SSE,159,5.0,8.0,74,0.00,SCT,,0.00,0.0,WeatherDisplay:10.37,2013-08-14 18:30:00,
2013-08-14 20:35:00,79.7,70.7,29.93,SE,138,8.1,8.1,74,0.00,SCT,,0.00,0.0,WeatherDisplay:10.37,2013-08-14 18:35:00,
2013-08-14 20:40:00,79.6,70.2,29.93,SSE,155,8.1,8.1,73,0.00,SCT,,0.00,0.0,WeatherDisplay:10.37,2013-08-14 18:40:00,
2013-08-14 20:45:00,79.5,70.1,29.93,SE,131,5.0,5.0,73,0.00,SCT,,0.00,0.0,WeatherDisplay:10.37,2013-08-14 18:45:00,
2013-08-14 20:51:00,79.5,70.1,29.93,South,182,5.0,5.0,73,0.00,SCT,,0.00,0.0,WeatherDisplay:10.37,2013-08-14 18:51:00,
2013-08-14 20:56:00,79.6,70.2,29.94,ESE,111,3.5,3.5,73,0.00,SCT,,0.00,0.0,WeatherDisplay:10.37,2013-08-14 18:56:00,
2013-08-14 21:01:00,79.6,69.8,29.94,East,84,3.5,3.5,72,0.00,SCT,,0.00,0.0,WeatherDisplay:10.37,2013-08-14 19:01:00,
2013-08-14 21:06:00,79.7,69.9,29.94,South,186,2.3,0.0,72,0.00,SCT,,0.00,0.0,WeatherDisplay:10.37,2013-08-14 19:06:00,
2013-08-14 21:12:00,79.7,69.9,29.94,South,190,1.2,1.2,72,0.00,SCT,,0.00,0.0,WeatherDisplay:10.37,2013-08-14 19:12:00,
2013-08-14 21:18:00,79.6,69.8,29.94,North,350,1.2,0.0,72,0.00,SCT,,0.00,0.0,WeatherDisplay:10.37,2013-08-14 19:18:00,
2013-08-14 21:23:00,79.5,69.7,29.94,WNW,302,2.3,2.3,72,0.00,SCT,,0.00,0.0,WeatherDisplay:10.37,2013-08-14 19:23:00,
2013-08-14 21:28:00,79.1,69.3,29.94,NNE,12,3.5,3.5,72,0.00,SCT,,0.00,0.0,WeatherDisplay:10.37,2013-08-14 19:28:00,
2013-08-14 21:34:00,78.8,69.4,29.94,NE,41,4.0,4.0,73,0.00,SCT,,0.00,0.0,WeatherDisplay:10.37,2013-08-14 19:34:00,
2013-08-14 21:39:00,78.7,69.3,29.94,NNE,26,1.2,1.2,73,0.00,SCT,,0.00,0.0,WeatherDisplay:10.37,2013-08-14 19:39:00,
2013-08-14 21:44:00,78.7,69.3,29.94,NNW,340,3.5,3.5,73,0.00,SCT,,0.00,0.0,WeatherDisplay:10.37,2013-08-14 19:44:00,
2013-08-14 21:49:00,78.6,68.8,29.94,NW,326,4.6,4.6,72,0.00,SCT,,0.00,0.0,WeatherDisplay:10.37,2013-08-14 19:49:00,
2013-08-14 21:54:00,78.7,68.9,29.94,ENE,72,3.5,3.5,72,0.00,SCT,,0.00,0.0,WeatherDisplay:10.37,2013-08-14 19:54:00,
2013-08-14 21:59:00,78.6,68.8,29.94,NNE,19,5.8,5.8,72,0.00,SCT,,0.00,0.0,WeatherDisplay:10.37,2013-08-14 19:59:00,
2013-08-14 22:05:00,78.2,68.8,29.93,WSW,252,2.3,2.3,73,0.00,FEW,,0.00,0.0,WeatherDisplay:10.37,2013-08-14 20:05:00,
2013-08-14 22:10:00,78.0,68.6,29.94,SSE,167,3.0,3.0,73,0.00,FEW,,0.00,0.0,WeatherDisplay:10.37,2013-08-14 20:10:00,
2013-08-14 22:15:00,77.7,68.7,29.94,WSW,241,2.3,2.3,74,0.00,FEW,,0.00,0.0,WeatherDisplay:10.37,2013-08-14 20:15:00,
2013-08-14 22:22:00,77.4,68.1,29.94,SW,233,2.3,2.3,73,0.00,FEW,,0.00,0.0,WeatherDisplay:10.37,2013-08-14 20:22:00,
2013-08-14 22:27:00,77.3,68.0,29.94,West,274,2.3,2.3,73,0.00,FEW,,0.00,0.0,WeatherDisplay:10.37,2013-08-14 20:27:00,
2013-08-14 22:33:00,77.0,67.7,29.93,ESE,105,4.6,4.6,73,0.00,FEW,,0.00,0.0,WeatherDisplay:10.37,2013-08-14 20:33:00,
2013-08-14 22:38:00,76.8,67.5,29.93,ENE,59,4.6,4.6,73,0.00,FEW,,0.00,0.0,WeatherDisplay:10.37,2013-08-14 20:38:00,
2013-08-14 22:43:00,76.7,67.4,29.93,SSW,193,2.3,2.3,73,0.00,FEW,,0.00,0.0,WeatherDisplay:10.37,2013-08-14 20:43:00,
2013-08-14 22:48:00,76.6,66.5,29.93,West,260,3.5,3.5,71,0.00,FEW,,0.00,0.0,WeatherDisplay:10.37,2013-08-14 20:48:00,
2013-08-14 22:53:00,76.7,66.2,29.93,South,190,3.5,3.5,70,0.00,FEW,,0.00,0.0,WeatherDisplay:10.37,2013-08-14 20:53:00,
2013-08-14 22:58:00,76.8,66.3,29.93,ESE,116,4.6,4.6,70,0.00,FEW,,0.00,0.0,WeatherDisplay:10.37,2013-08-14 20:58:00,
2013-08-14 23:03:00,76.8,66.3,29.93,West,265,2.3,2.3,70,0.00,FEW,,0.00,0.0,WeatherDisplay:10.37,2013-08-14 21:03:00,
2013-08-14 23:08:00,76.7,66.2,29.92,NW,323,3.5,3.5,70,0.00,FEW,,0.00,0.0,WeatherDisplay:10.37,2013-08-14 21:08:00,
2013-08-14 23:13:00,76.5,65.6,29.92,NE,40,3.5,3.5,69,0.00,FEW,,0.00,0.0,WeatherDisplay:10.37,2013-08-14 21:13:00,
2013-08-14 23:18:00,76.5,65.1,29.92,East,94,3.5,3.5,68,0.00,FEW,,0.00,0.0,WeatherDisplay:10.37,2013-08-14 21:18:00,
2013-08-14 23:23:00,76.5,65.1,29.92,South,182,2.3,2.3,68,0.00,FEW,,0.00,0.0,WeatherDisplay:10.37,2013-08-14 21:23:00,
2013-08-14 23:28:00,76.6,64.8,29.92,NNE,12,4.6,4.6,67,0.00,FEW,,0.00,0.0,WeatherDisplay:10.37,2013-08-14 21:28:00,
2013-08-14 23:33:00,76.7,64.9,29.93,South,172,4.0,4.0,67,0.00,FEW,,0.00,0.0,WeatherDisplay:10.37,2013-08-14 21:33:00,
2013-08-14 23:38:00,76.9,64.7,29.92,SW,228,4.6,4.6,66,0.00,FEW,,0.00,0.0,WeatherDisplay:10.37,2013-08-14 21:38:00,
2013-08-14 23:43:00,77.0,64.8,29.92,SW,229,2.3,2.3,66,0.00,,,0.00,0.0,WeatherDisplay:10.37,2013-08-14 21:43:00,
2013-08-14 23:48:00,77.0,64.8,29.92,South,188,3.5,3.5,66,0.00,,,0.00,0.0,WeatherDisplay:10.37,2013-08-14 21:48:00,
2013-08-14 23:53:00,77.0,64.8,29.92,SSW,202,4.6,4.6,66,0.00,,,0.00,0.0,WeatherDisplay:10.37,2013-08-14 21:53:00,
2013-08-14 23:58:00,76.9,64.7,29.92,SW,217,3.5,3.5,66,0.00,,,0.00,0.0,WeatherDisplay:10.37,2013-08-14 21:58:00,